createdAt,value
2022-08-16T00:01:18.393Z,22.59
2022-08-16T00:03:46.647Z,22.57
2022-08-16T00:06:15.408Z,22.56
2022-08-16T00:08:45.924Z,22.54
2022-08-16T00:11:15.228Z,22.43
2022-08-16T00:13:43.933Z,22.54
2022-08-16T00:17:05.839Z,22.52
2022-08-16T00:19:13.619Z,22.51
2022-08-16T00:21:42.264Z,22.44
2022-08-16T00:24:12.133Z,22.42
2022-08-16T00:26:43.921Z,22.38
2022-08-16T00:29:15.687Z,22.38
2022-08-16T00:31:58.808Z,22.28
2022-08-16T00:34:41.379Z,22.28
2022-08-16T00:37:12.601Z,22.21
2022-08-16T00:39:45.385Z,22.22
2022-08-16T00:42:30.296Z,22.22
2022-08-16T00:45:06.527Z,22.18
2022-08-16T00:47:42.500Z,22.14
2022-08-16T00:50:16.657Z,22.07
2022-08-16T00:52:50.216Z,22.05
2022-08-16T00:55:20.579Z,22.02
2022-08-16T00:57:58.613Z,22.04
2022-08-16T01:00:30.194Z,22.01
2022-08-16T01:03:03.967Z,21.99
2022-08-16T01:05:33.096Z,21.93
2022-08-16T01:08:01.298Z,21.90
2022-08-16T01:10:33.538Z,21.88
2022-08-16T01:13:05.645Z,21.86
2022-08-16T01:15:35.390Z,21.82
2022-08-16T01:18:06.868Z,21.83
2022-08-16T01:20:39.005Z,21.73
2022-08-16T01:23:17.049Z,21.74
2022-08-16T01:26:00.050Z,21.76
2022-08-16T01:28:45.345Z,21.69
2022-08-16T01:31:15.787Z,21.60
2022-08-16T01:33:44.683Z,21.66
2022-08-16T01:36:13.102Z,21.67
2022-08-16T01:38:47.061Z,21.58
2022-08-16T01:41:21.247Z,21.55
2022-08-16T01:43:53.886Z,21.50
2022-08-16T01:46:37.210Z,21.54
2022-08-16T01:49:09.970Z,21.42
2022-08-16T01:51:39.195Z,20.96
2022-08-16T01:54:15.360Z,20.44
2022-08-16T01:56:52.643Z,20.68
2022-08-16T01:59:23.362Z,21.28
2022-08-16T02:02:02.661Z,21.32
2022-08-16T02:04:54.607Z,21.29
2022-08-16T02:07:28.690Z,21.24
2022-08-16T02:10:04.778Z,21.21
2022-08-16T02:12:49.482Z,21.23
2022-08-16T02:15:40.398Z,21.16
2022-08-16T02:18:18.545Z,21.14
2022-08-16T02:20:57.853Z,21.18
2022-08-16T02:23:30.028Z,21.09
2022-08-16T02:26:02.419Z,21.07
2022-08-16T02:28:34.971Z,21.03
2022-08-16T02:31:10.215Z,20.30
2022-08-16T02:33:50.620Z,20.89
2022-08-16T02:36:47.736Z,20.98
2022-08-16T02:39:23.121Z,20.95
2022-08-16T02:41:53.790Z,20.56
2022-08-16T02:44:29.315Z,20.65
2022-08-16T02:47:05.984Z,20.86
2022-08-16T02:49:59.133Z,20.84
2022-08-16T02:55:40.876Z,20.76
2022-08-16T02:58:14.817Z,20.73
2022-08-16T03:00:55.988Z,20.69
2022-08-16T03:04:41.197Z,20.69
2022-08-16T03:06:56.731Z,20.66
2022-08-16T03:09:32.519Z,20.61
2022-08-16T03:12:04.136Z,20.62
2022-08-16T03:14:32.476Z,20.63
2022-08-16T03:17:12.740Z,20.59
2022-08-16T03:19:48.477Z,20.55
2022-08-16T03:22:36.880Z,20.51
2022-08-16T03:25:25.083Z,20.51
2022-08-16T03:28:18.912Z,20.47
2022-08-16T03:30:56.674Z,20.40
2022-08-16T03:33:40.470Z,20.44
2022-08-16T03:36:30.164Z,20.41
2022-08-16T03:39:06.139Z,20.44
2022-08-16T03:41:50.091Z,20.43
2022-08-16T03:44:40.743Z,20.27
2022-08-16T03:49:54.952Z,20.28
2022-08-16T03:52:43.710Z,20.30
2022-08-16T03:55:17.498Z,20.22
2022-08-16T03:57:53.911Z,20.26
2022-08-16T04:00:35.848Z,20.22
2022-08-16T04:03:11.472Z,20.06
2022-08-16T04:05:46.650Z,20.15
2022-08-16T04:08:23.184Z,20.09
2022-08-16T04:11:02.305Z,20.11
2022-08-16T04:14:01.187Z,20.08
2022-08-16T04:16:29.783Z,20.03
2022-08-16T04:19:06.485Z,20.03
2022-08-16T04:21:47.168Z,19.98
2022-08-16T04:24:17.093Z,20.00
2022-08-16T04:26:52.174Z,20.00
2022-08-16T04:29:27.238Z,19.95
2022-08-16T04:32:21.482Z,19.97
2022-08-16T04:34:58.523Z,19.96
2022-08-16T04:37:45.555Z,19.93
2022-08-16T04:40:21.464Z,19.99
2022-08-16T04:42:54.909Z,20.01
2022-08-16T04:45:35.966Z,19.98
2022-08-16T04:48:22.153Z,19.92
2022-08-16T04:51:07.889Z,19.91
2022-08-16T04:53:50.627Z,19.85
2022-08-16T04:56:30.604Z,19.88
2022-08-16T04:59:00.091Z,19.92
2022-08-16T05:01:58.248Z,19.98
2022-08-16T05:04:19.862Z,19.92
2022-08-16T05:06:48.041Z,20.07
2022-08-16T05:09:36.572Z,20.00
2022-08-16T05:12:06.440Z,20.21
2022-08-16T05:14:46.476Z,20.24
2022-08-16T05:17:26.433Z,20.27
2022-08-16T05:19:57.253Z,20.48
2022-08-16T05:22:30.086Z,20.72
2022-08-16T05:24:59.269Z,20.97
2022-08-16T05:27:26.935Z,21.11
2022-08-16T05:30:00.808Z,21.20
2022-08-16T05:32:32.616Z,20.95
2022-08-16T05:35:02.203Z,21.14
2022-08-16T05:37:39.995Z,21.20
2022-08-16T05:40:13.050Z,21.52
2022-08-16T05:42:46.021Z,20.96
2022-08-16T05:45:14.134Z,20.63
2022-08-16T05:47:49.454Z,20.92
2022-08-16T05:50:34.457Z,21.07
2022-08-16T05:53:04.248Z,21.24
2022-08-16T05:55:40.822Z,21.07
2022-08-16T05:58:08.629Z,20.87
2022-08-16T06:03:18.717Z,20.68
2022-08-16T06:05:46.456Z,20.52
2022-08-16T06:08:32.343Z,20.79
2022-08-16T06:11:11.115Z,20.53
2022-08-16T06:13:50.477Z,20.37
2022-08-16T06:16:18.811Z,20.62
2022-08-16T06:19:00.286Z,20.47
2022-08-16T06:21:40.491Z,20.59
2022-08-16T06:24:53.979Z,20.33
2022-08-16T06:27:11.906Z,20.43
2022-08-16T06:30:11.316Z,20.43
2022-08-16T06:32:48.418Z,20.57
2022-08-16T06:35:17.485Z,20.69
2022-08-16T06:37:51.184Z,20.67
2022-08-16T06:40:19.527Z,20.63
2022-08-16T06:42:48.517Z,20.55
2022-08-16T06:45:16.714Z,20.66
2022-08-16T06:47:56.110Z,20.67
2022-08-16T06:50:30.002Z,20.56
2022-08-16T06:53:00.506Z,20.49
2022-08-16T06:55:34.108Z,20.82
2022-08-16T06:58:08.193Z,20.78
2022-08-16T07:00:39.344Z,20.83
2022-08-16T07:03:27.183Z,20.97
2022-08-16T07:05:56.892Z,20.87
2022-08-16T07:08:24.874Z,21.03
2022-08-16T07:10:55.458Z,21.12
2022-08-16T07:14:00.574Z,21.29
2022-08-16T07:16:20.810Z,21.24
2022-08-16T07:18:59.133Z,21.29
2022-08-16T07:21:46.573Z,21.09
2022-08-16T07:24:30.468Z,21.32
2022-08-16T07:26:59.001Z,21.19
2022-08-16T07:29:31.658Z,21.46
2022-08-16T07:32:00.826Z,21.33
2022-08-16T07:34:35.261Z,21.39
2022-08-16T07:37:11.454Z,21.75
2022-08-16T07:39:42.914Z,21.06
2022-08-16T07:42:10.626Z,21.49
2022-08-16T07:44:50.691Z,21.34
2022-08-16T07:47:18.608Z,21.57
2022-08-16T07:49:53.192Z,21.44
2022-08-16T07:52:29.690Z,21.68
2022-08-16T07:54:57.835Z,21.51
2022-08-16T07:57:26.440Z,21.65
2022-08-16T07:59:57.395Z,21.74
2022-08-16T08:02:27.177Z,21.97
2022-08-16T08:04:55.975Z,22.31
2022-08-16T08:07:27.470Z,22.23
2022-08-16T08:09:56.566Z,22.67
2022-08-16T08:12:32.054Z,22.62
2022-08-16T08:15:09.581Z,22.41
2022-08-16T08:17:43.009Z,22.53
2022-08-16T08:20:20.780Z,22.84
2022-08-16T08:23:03.388Z,22.85
2022-08-16T08:25:52.089Z,22.58
2022-08-16T08:28:19.891Z,22.54
2022-08-16T08:31:00.847Z,22.65
2022-08-16T08:33:31.349Z,23.04
2022-08-16T08:36:12.373Z,22.67
2022-08-16T08:38:51.174Z,22.60
2022-08-16T08:41:23.600Z,22.59
2022-08-16T08:43:57.146Z,22.48
2022-08-16T08:46:29.010Z,22.57
2022-08-16T08:49:10.976Z,23.24
2022-08-16T08:51:39.161Z,23.95
2022-08-16T08:54:10.173Z,23.36
2022-08-16T08:56:45.995Z,23.48
2022-08-16T08:59:20.111Z,23.23
2022-08-16T09:01:57.773Z,23.21
2022-08-16T09:04:26.942Z,22.91
2022-08-16T09:06:55.037Z,22.97
2022-08-16T09:09:23.067Z,22.73
2022-08-16T09:12:04.253Z,23.47
2022-08-16T09:14:49.490Z,22.89
2022-08-16T09:20:13.536Z,23.83
2022-08-16T09:22:42.880Z,23.94
2022-08-16T09:25:35.374Z,23.80
2022-08-16T09:28:09.505Z,23.94
2022-08-16T09:30:45.865Z,23.34
2022-08-16T09:36:45.070Z,23.01
2022-08-16T09:39:15.797Z,22.86
2022-08-16T09:41:54.438Z,22.93
2022-08-16T09:45:12.368Z,22.95
2022-08-16T09:47:12.262Z,22.97
2022-08-16T09:49:42.563Z,22.80
2022-08-16T09:52:11.545Z,22.92
2022-08-16T09:54:44.349Z,23.07
2022-08-16T09:57:12.489Z,23.11
2022-08-16T09:59:41.997Z,23.08
2022-08-16T10:02:26.412Z,22.96
2022-08-16T10:04:57.902Z,22.88
2022-08-16T10:07:26.325Z,22.70
2022-08-16T10:10:12.572Z,22.77
2022-08-16T10:13:07.370Z,22.89
2022-08-16T10:15:36.148Z,22.90
2022-08-16T10:18:56.124Z,23.18
2022-08-16T10:21:06.685Z,23.20
2022-08-16T10:23:54.449Z,23.49
2022-08-16T10:27:20.022Z,23.55
2022-08-16T10:30:01.033Z,23.47
2022-08-16T10:39:17.709Z,23.82
2022-08-16T10:45:13.811Z,23.64
2022-08-16T10:48:27.748Z,23.83
2022-08-16T10:52:01.735Z,23.84
2022-08-16T10:57:57.076Z,23.88
2022-08-16T11:00:24.846Z,23.88
2022-08-16T11:02:59.421Z,24.13
2022-08-16T11:05:59.076Z,24.03
2022-08-16T11:08:23.588Z,24.19
2022-08-16T11:11:12.700Z,24.14
2022-08-16T11:19:17.552Z,24.87
2022-08-16T11:24:42.627Z,25.15
2022-08-16T11:27:19.658Z,25.35
2022-08-16T11:29:49.766Z,25.41
2022-08-16T11:32:22.668Z,25.77
2022-08-16T11:35:10.743Z,25.77
2022-08-16T11:40:32.360Z,25.19
2022-08-16T11:43:04.594Z,25.31
2022-08-16T11:45:33.890Z,25.76
2022-08-16T11:48:02.813Z,26.01
2022-08-16T11:50:33.466Z,25.72
2022-08-16T11:53:02.430Z,26.40
2022-08-16T11:55:32.271Z,25.91
2022-08-16T11:58:00.149Z,26.22
2022-08-16T12:00:35.224Z,25.45
2022-08-16T12:03:19.142Z,25.57
2022-08-16T12:05:51.960Z,25.47
2022-08-16T12:08:26.019Z,25.73
2022-08-16T12:10:59.419Z,26.36
2022-08-16T12:13:31.213Z,26.15
2022-08-16T12:16:03.235Z,25.89
2022-08-16T12:18:40.613Z,26.01
2022-08-16T12:21:09.836Z,25.96
2022-08-16T12:23:38.048Z,25.94
2022-08-16T12:26:10.238Z,25.77
2022-08-16T12:28:55.161Z,25.95
2022-08-16T12:31:26.204Z,25.67
2022-08-16T12:33:55.988Z,25.81
2022-08-16T12:36:30.095Z,25.80
2022-08-16T12:39:00.697Z,25.83
2022-08-16T12:41:29.087Z,25.88
2022-08-16T12:44:06.284Z,25.71
2022-08-16T12:46:36.135Z,25.86
2022-08-16T12:49:05.782Z,25.63
2022-08-16T12:51:59.046Z,25.57
2022-08-16T12:54:25.094Z,25.68
2022-08-16T12:56:53.118Z,25.57
2022-08-16T12:59:23.793Z,25.43
2022-08-16T13:01:55.425Z,25.60
2022-08-16T13:04:27.996Z,25.76
2022-08-16T13:09:42.091Z,25.70
2022-08-16T13:12:20.020Z,25.81
2022-08-16T13:14:50.289Z,25.60
2022-08-16T13:17:23.276Z,25.67
2022-08-16T13:20:11.124Z,25.76
2022-08-16T13:22:41.338Z,25.63
2022-08-16T13:25:14.082Z,25.55
2022-08-16T13:28:03.338Z,25.81
2022-08-16T13:30:36.345Z,25.68
2022-08-16T13:33:12.512Z,25.60
2022-08-16T13:35:44.236Z,25.81
2022-08-16T13:38:24.647Z,25.68
2022-08-16T13:40:55.970Z,25.65
2022-08-16T13:43:25.043Z,25.93
2022-08-16T13:45:55.403Z,25.88
2022-08-16T13:48:26.180Z,25.86
2022-08-16T13:50:56.315Z,26.15
2022-08-16T13:53:24.975Z,25.93
2022-08-16T13:55:57.913Z,25.90
2022-08-16T13:58:36.516Z,25.76
2022-08-16T14:01:17.123Z,25.62
2022-08-16T14:03:46.977Z,25.61
2022-08-16T14:06:15.532Z,25.68
2022-08-16T14:08:59.046Z,25.72
2022-08-16T14:11:34.847Z,25.68
2022-08-16T14:14:05.624Z,25.61
2022-08-16T14:16:34.733Z,25.57
2022-08-16T14:19:06.920Z,25.56
2022-08-16T14:21:35.842Z,25.60
2022-08-16T14:24:16.647Z,25.64
2022-08-16T14:26:50.316Z,25.73
2022-08-16T14:31:53.918Z,26.08
2022-08-16T14:34:25.657Z,26.35
2022-08-16T14:36:57.463Z,26.81
2022-08-16T14:39:27.264Z,26.70
2022-08-16T14:41:55.777Z,26.70
2022-08-16T14:44:26.124Z,26.17
2022-08-16T14:46:54.772Z,25.84
2022-08-16T14:49:24.870Z,25.80
2022-08-16T14:51:52.702Z,25.79
2022-08-16T14:54:21.710Z,25.84
2022-08-16T14:56:55.260Z,25.86
2022-08-16T14:59:23.415Z,25.76
2022-08-16T15:01:59.004Z,25.90
2022-08-16T15:04:32.528Z,26.27
2022-08-16T15:07:10.135Z,26.33
2022-08-16T15:09:44.127Z,26.71
2022-08-16T15:12:32.850Z,26.52
2022-08-16T15:15:12.236Z,26.22
2022-08-16T15:17:54.251Z,26.38
2022-08-16T15:20:29.175Z,26.41
2022-08-16T15:22:59.260Z,26.73
2022-08-16T15:25:30.165Z,26.64
2022-08-16T15:27:58.603Z,26.89
2022-08-16T15:30:57.291Z,26.78
2022-08-16T15:33:18.213Z,26.46
2022-08-16T15:35:53.006Z,26.80
2022-08-16T15:38:56.943Z,26.58
2022-08-16T15:41:54.140Z,26.45
2022-08-16T15:44:24.812Z,26.30
2022-08-16T15:46:56.454Z,26.19
2022-08-16T15:49:37.296Z,26.40
2022-08-16T15:52:11.487Z,26.66
2022-08-16T15:54:51.404Z,26.55
2022-08-16T15:57:22.650Z,26.62
2022-08-16T15:59:52.679Z,26.89
2022-08-16T16:02:29.556Z,26.85
2022-08-16T16:05:01.783Z,26.87
2022-08-16T16:07:33.170Z,26.90
2022-08-16T16:10:02.018Z,26.93
2022-08-16T16:12:51.368Z,26.92
2022-08-16T16:15:22.881Z,26.87
2022-08-16T16:17:52.549Z,26.91
2022-08-16T16:20:22.207Z,26.71
2022-08-16T16:22:53.992Z,26.75
2022-08-16T16:25:21.637Z,26.67
2022-08-16T16:27:55.308Z,26.67
2022-08-16T16:30:34.493Z,26.53
2022-08-16T16:33:15.834Z,26.68
2022-08-16T16:35:55.539Z,26.63
2022-08-16T16:38:28.819Z,26.74
2022-08-16T16:40:57.652Z,26.44
2022-08-16T16:43:31.322Z,26.27
2022-08-16T16:45:59.876Z,26.34
2022-08-16T16:48:34.612Z,26.35
2022-08-16T16:51:09.169Z,26.37
2022-08-16T16:53:42.269Z,26.41
2022-08-16T16:56:20.418Z,26.31
2022-08-16T17:02:38.146Z,26.39
2022-08-16T17:04:47.244Z,26.37
2022-08-16T17:07:15.401Z,26.37
2022-08-16T17:09:45.793Z,26.35
2022-08-16T17:12:24.998Z,26.17
2022-08-16T17:15:02.952Z,25.96
2022-08-16T17:17:59.274Z,25.96
2022-08-16T17:20:20.805Z,26.04
2022-08-16T17:22:55.075Z,26.04
2022-08-16T17:25:25.380Z,26.05
2022-08-16T17:27:53.078Z,25.88
2022-08-16T17:30:29.592Z,25.85
2022-08-16T17:33:13.249Z,25.78
2022-08-16T17:35:45.817Z,25.78
2022-08-16T17:38:39.298Z,25.69
2022-08-16T17:41:15.539Z,25.74
2022-08-16T17:43:45.032Z,25.63
2022-08-16T17:46:41.475Z,25.52
2022-08-16T17:49:01.900Z,25.43
2022-08-16T17:51:29.510Z,25.37
2022-08-16T17:53:57.619Z,25.32
2022-08-16T17:56:26.638Z,25.25
2022-08-16T17:58:54.505Z,25.16
2022-08-16T18:01:26.313Z,25.10
2022-08-16T18:04:07.180Z,25.01
2022-08-16T18:06:37.610Z,24.89
2022-08-16T18:09:05.633Z,24.83
2022-08-16T18:11:41.058Z,24.78
2022-08-16T18:14:13.222Z,24.69
2022-08-16T18:16:41.283Z,24.76
2022-08-16T18:19:09.163Z,24.70
2022-08-16T18:21:54.841Z,24.61
2022-08-16T18:24:22.944Z,24.52
2022-08-16T18:26:52.333Z,24.46
2022-08-16T18:29:21.321Z,24.40
2022-08-16T18:31:50.920Z,24.33
2022-08-16T18:34:20.750Z,24.27
2022-08-16T18:36:48.415Z,24.20
2022-08-16T18:39:16.375Z,24.13
2022-08-16T18:41:47.014Z,24.03
2022-08-16T18:44:25.652Z,23.96
2022-08-16T18:46:55.507Z,23.90
2022-08-16T18:49:23.304Z,23.86
2022-08-16T18:51:51.035Z,23.75
2022-08-16T18:54:19.536Z,23.68
2022-08-16T18:56:54.233Z,23.60
2022-08-16T18:59:28.089Z,23.54
2022-08-16T19:02:00.400Z,23.49
2022-08-16T19:04:48.984Z,23.44
2022-08-16T19:07:22.244Z,23.37
2022-08-16T19:09:50.010Z,23.27
2022-08-16T19:12:17.647Z,23.25
2022-08-16T19:15:11.983Z,23.21
2022-08-16T19:17:41.283Z,23.16
2022-08-16T19:20:11.016Z,23.08
2022-08-16T19:25:47.514Z,23.01
2022-08-16T19:28:48.837Z,23.01
2022-08-16T19:31:10.723Z,22.99
2022-08-16T19:33:38.801Z,22.95
2022-08-16T19:36:06.928Z,22.88
2022-08-16T19:38:39.370Z,22.85
2022-08-16T19:41:07.409Z,22.82
2022-08-16T19:43:35.627Z,22.73
2022-08-16T19:46:04.170Z,22.63
2022-08-16T19:48:33.245Z,22.59
2022-08-16T19:51:01.405Z,22.54
2022-08-16T19:53:29.503Z,22.52
2022-08-16T19:55:58.249Z,22.46
2022-08-16T19:58:27.623Z,22.42
2022-08-16T20:00:56.454Z,22.38
2022-08-16T20:03:24.964Z,22.33
2022-08-16T20:05:54.027Z,22.30
2022-08-16T20:08:22.206Z,22.30
2022-08-16T20:10:50.728Z,22.19
2022-08-16T20:13:21.220Z,22.15
2022-08-16T20:15:50.404Z,22.09
2022-08-16T20:18:24.382Z,22.10
2022-08-16T20:20:55.345Z,22.08
2022-08-16T20:23:25.319Z,22.04
2022-08-16T20:25:55.441Z,21.97
2022-08-16T20:28:51.012Z,21.92
2022-08-16T20:31:11.814Z,21.86
2022-08-16T20:33:39.608Z,21.84
2022-08-16T20:36:09.326Z,21.79
2022-08-16T20:38:46.789Z,21.75
2022-08-16T20:41:14.785Z,21.91
2022-08-16T20:43:42.726Z,22.02
2022-08-16T20:46:11.186Z,22.07
2022-08-16T20:48:38.834Z,22.06
2022-08-16T20:51:10.552Z,22.05
2022-08-16T20:53:38.672Z,22.02
2022-08-16T20:56:07.675Z,21.98
2022-08-16T20:58:35.303Z,21.96
2022-08-16T21:01:03.464Z,21.91
2022-08-16T21:03:31.326Z,21.91
2022-08-16T21:05:59.485Z,21.90
2022-08-16T21:08:53.619Z,21.86
2022-08-16T21:11:16.900Z,21.83
2022-08-16T21:13:44.482Z,21.79
2022-08-16T21:16:12.095Z,21.75
2022-08-16T21:18:39.699Z,21.74
2022-08-16T21:21:07.281Z,21.70
2022-08-16T21:23:36.244Z,21.67
2022-08-16T21:26:05.760Z,21.65
2022-08-16T21:28:43.333Z,21.64
2022-08-16T21:31:11.692Z,21.61
2022-08-16T21:33:40.751Z,21.58
2022-08-16T21:36:09.069Z,21.56
2022-08-16T21:38:38.429Z,21.55
2022-08-16T21:41:07.972Z,21.52
2022-08-16T21:43:35.838Z,21.49
2022-08-16T21:46:05.266Z,21.47
2022-08-16T21:48:35.787Z,21.44
2022-08-16T21:51:05.158Z,21.41
2022-08-16T21:53:34.099Z,21.37
2022-08-16T21:56:03.184Z,21.36
2022-08-16T21:58:31.957Z,21.33
2022-08-16T22:01:00.735Z,21.30
2022-08-16T22:03:29.984Z,21.27
2022-08-16T22:06:11.037Z,21.24
2022-08-16T22:08:49.323Z,21.22
2022-08-16T22:11:20.142Z,21.18
2022-08-16T22:13:58.357Z,21.15
2022-08-16T22:16:28.767Z,21.13
2022-08-16T22:18:56.548Z,21.12
2022-08-16T22:21:24.633Z,21.09
2022-08-16T22:23:57.168Z,21.05
2022-08-16T22:26:30.486Z,21.03
2022-08-16T22:29:00.128Z,20.97
2022-08-16T22:31:27.740Z,20.97
2022-08-16T22:33:56.505Z,20.94
2022-08-16T22:36:24.259Z,20.93
2022-08-16T22:38:58.058Z,20.90
2022-08-16T22:41:29.073Z,20.88
2022-08-16T22:43:57.523Z,20.85
2022-08-16T22:46:25.314Z,20.83
2022-08-16T22:48:53.115Z,20.82
2022-08-16T22:51:23.033Z,20.78
2022-08-16T22:53:50.964Z,20.77
2022-08-16T22:56:18.827Z,20.77
2022-08-16T22:58:49.061Z,20.72
2022-08-16T23:01:18.484Z,20.70
2022-08-16T23:03:46.219Z,20.68
2022-08-16T23:06:14.748Z,20.66
2022-08-16T23:08:43.472Z,20.63
2022-08-16T23:11:14.421Z,20.61
2022-08-16T23:13:49.969Z,20.58
2022-08-16T23:16:33.502Z,20.56
2022-08-16T23:19:02.664Z,20.53
2022-08-16T23:21:30.450Z,20.50
2022-08-16T23:23:58.247Z,20.47
2022-08-16T23:26:46.735Z,20.47
2022-08-16T23:29:22.143Z,20.44
2022-08-16T23:31:56.137Z,20.41
2022-08-16T23:34:24.198Z,20.37
2022-08-16T23:36:51.820Z,20.35
2022-08-16T23:39:19.534Z,20.35
2022-08-16T23:41:47.131Z,20.31
2022-08-16T23:44:56.700Z,20.29
2022-08-16T23:47:05.228Z,20.26
2022-08-16T23:49:57.983Z,20.26
2022-08-16T23:52:53.370Z,20.21
2022-08-16T23:55:09.086Z,20.17
2022-08-16T23:57:37.453Z,20.15
